createdAt,value
2017-03-26T00:00:11.908Z,7.25
2017-03-26T00:00:52.488Z,7.27
2017-03-26T00:01:33.000Z,7.13
2017-03-26T00:02:13.457Z,7.27
2017-03-26T00:02:53.978Z,7.12
2017-03-26T00:03:34.517Z,7.2
2017-03-26T00:04:15.062Z,7.15
2017-03-26T00:04:55.599Z,7.15
2017-03-26T00:05:36.141Z,7.17
2017-03-26T00:06:16.743Z,7.23
2017-03-26T00:06:57.269Z,7.16
2017-03-26T00:07:37.794Z,7.17
2017-03-26T00:08:18.320Z,7.16
2017-03-26T00:08:58.859Z,7.13
2017-03-26T00:09:39.427Z,7.17
2017-03-26T00:10:19.947Z,7.06
2017-03-26T00:11:00.452Z,7.13
2017-03-26T00:11:40.973Z,7.02
2017-03-26T00:12:21.487Z,7.09
2017-03-26T00:13:02.035Z,7.05
2017-03-26T00:13:42.552Z,7.02
2017-03-26T00:14:23.085Z,7.05
2017-03-26T00:15:03.583Z,7.03
2017-03-26T00:15:44.133Z,6.99
2017-03-26T00:16:24.647Z,6.97
2017-03-26T00:17:05.170Z,6.95
2017-03-26T00:17:45.667Z,6.92
2017-03-26T00:18:26.190Z,6.99
2017-03-26T00:19:06.655Z,6.95
2017-03-26T00:19:47.150Z,6.98
2017-03-26T00:20:27.663Z,6.98
2017-03-26T00:21:08.204Z,6.92
2017-03-26T00:21:48.741Z,6.91
2017-03-26T00:22:29.231Z,6.88
2017-03-26T00:23:09.775Z,6.85
2017-03-26T00:23:50.276Z,6.85
2017-03-26T00:24:30.833Z,6.84
2017-03-26T00:25:11.331Z,6.95
2017-03-26T00:25:51.924Z,6.8
2017-03-26T00:26:32.497Z,6.79
2017-03-26T00:27:12.989Z,6.81
2017-03-26T00:27:53.522Z,6.92
2017-03-26T00:28:34.030Z,6.87
2017-03-26T00:29:14.543Z,6.92
2017-03-26T00:29:55.106Z,6.87
2017-03-26T00:30:35.691Z,6.87
2017-03-26T00:31:16.154Z,6.84
2017-03-26T00:31:56.681Z,6.77
2017-03-26T00:32:37.171Z,6.7
2017-03-26T00:33:17.698Z,6.7
2017-03-26T00:33:58.232Z,6.76
2017-03-26T00:34:38.738Z,6.79
2017-03-26T00:35:19.263Z,6.74
2017-03-26T00:35:59.769Z,6.76
2017-03-26T00:36:40.261Z,6.67
2017-03-26T00:37:20.764Z,6.67
2017-03-26T00:38:01.308Z,6.74
2017-03-26T00:38:41.789Z,6.69
2017-03-26T00:39:22.284Z,6.61
2017-03-26T00:40:02.841Z,6.71
2017-03-26T00:40:43.327Z,6.73
2017-03-26T00:41:23.822Z,6.71
2017-03-26T00:42:04.344Z,6.61
2017-03-26T00:42:44.878Z,6.7
2017-03-26T00:43:25.373Z,6.61
2017-03-26T00:44:05.894Z,6.67
2017-03-26T00:44:46.445Z,6.62
2017-03-26T00:45:26.982Z,6.58
2017-03-26T00:46:07.485Z,6.61
2017-03-26T00:46:48.575Z,6.61
2017-03-26T00:47:29.030Z,6.54
2017-03-26T00:48:09.587Z,6.59
2017-03-26T00:48:50.074Z,6.61
2017-03-26T00:49:30.627Z,6.55
2017-03-26T00:50:11.175Z,6.56
2017-03-26T00:50:51.741Z,6.59
2017-03-26T00:51:32.274Z,6.59
2017-03-26T00:52:12.775Z,6.52
2017-03-26T00:52:53.313Z,6.52
2017-03-26T00:53:33.820Z,6.55
2017-03-26T00:54:14.342Z,6.44
2017-03-26T00:54:55.859Z,6.41
2017-03-26T00:55:36.339Z,6.51
2017-03-26T00:56:16.863Z,6.54
2017-03-26T00:56:57.366Z,6.43
2017-03-26T00:57:37.936Z,6.49
2017-03-26T00:58:18.446Z,6.46
2017-03-26T00:58:58.973Z,6.34
2017-03-26T00:59:39.533Z,6.4
2017-03-26T01:00:20.078Z,6.41
2017-03-26T01:01:00.621Z,6.44
2017-03-26T01:01:41.127Z,6.34
2017-03-26T01:02:21.691Z,6.41
2017-03-26T01:03:02.282Z,6.36
2017-03-26T01:03:42.808Z,6.34
2017-03-26T01:04:23.387Z,6.31
2017-03-26T01:05:03.975Z,6.31
2017-03-26T01:05:44.461Z,6.21
2017-03-26T01:06:24.939Z,6.22
2017-03-26T01:07:05.486Z,6.31
2017-03-26T01:07:45.978Z,6.3
2017-03-26T01:08:26.523Z,6.22
2017-03-26T01:09:07.006Z,6.27
2017-03-26T01:09:47.555Z,6.3
2017-03-26T01:10:28.165Z,6.22
2017-03-26T01:11:08.774Z,6.18
2017-03-26T01:11:49.272Z,6.21
2017-03-26T01:12:29.771Z,6.25
2017-03-26T01:13:10.285Z,6.28
2017-03-26T01:13:50.837Z,6.28
2017-03-26T01:14:31.368Z,6.11
2017-03-26T01:15:11.840Z,6.22
2017-03-26T01:15:52.373Z,6.25
2017-03-26T01:16:32.915Z,6.15
2017-03-26T01:17:13.426Z,6.27
2017-03-26T01:17:53.983Z,6.27
2017-03-26T01:18:34.456Z,6.25
2017-03-26T01:19:14.971Z,6.22
2017-03-26T01:19:55.510Z,6.25
2017-03-26T01:20:36.020Z,6.22
2017-03-26T01:21:16.547Z,6.22
2017-03-26T01:21:57.044Z,6.22
2017-03-26T01:24:11.305Z,6.19
2017-03-26T01:24:51.798Z,6.14
2017-03-26T01:25:32.320Z,6.22
2017-03-26T01:26:12.842Z,6.19
2017-03-26T01:26:53.363Z,6.25
2017-03-26T01:27:33.874Z,6.3
2017-03-26T01:28:14.410Z,6.22
2017-03-26T01:28:54.898Z,6.14
2017-03-26T01:29:35.419Z,6.27
2017-03-26T01:30:15.955Z,6.31
2017-03-26T01:30:56.558Z,6.3
2017-03-26T01:31:37.048Z,6.3
2017-03-26T01:32:17.526Z,6.27
2017-03-26T01:32:58.035Z,6.17
2017-03-26T01:33:38.585Z,6.18
2017-03-26T01:34:19.074Z,6.18
2017-03-26T01:34:59.632Z,6.19
2017-03-26T01:35:40.148Z,6.21
2017-03-26T01:36:20.658Z,6.31
2017-03-26T01:37:01.190Z,6.28
2017-03-26T01:37:42.340Z,6.3
2017-03-26T01:38:22.902Z,6.28
2017-03-26T01:39:03.448Z,6.19
2017-03-26T01:39:44.009Z,6.22
2017-03-26T01:40:24.548Z,6.27
2017-03-26T01:41:05.052Z,6.12
2017-03-26T01:41:45.590Z,6.21
2017-03-26T01:42:26.099Z,6.25
2017-03-26T01:43:06.622Z,6.27
2017-03-26T01:43:47.161Z,6.21
2017-03-26T01:44:27.656Z,6.21
2017-03-26T01:45:08.201Z,6.25
2017-03-26T01:45:48.732Z,6.22
2017-03-26T01:46:29.304Z,6.22
2017-03-26T01:47:09.855Z,6.18
2017-03-26T01:47:50.436Z,6.14
2017-03-26T01:48:31.055Z,6.18
2017-03-26T01:49:11.560Z,6.19
2017-03-26T01:49:52.062Z,6.15
2017-03-26T01:50:32.583Z,6.15
2017-03-26T01:51:13.107Z,6.18
2017-03-26T01:51:53.645Z,6.17
2017-03-26T01:52:34.178Z,6.18
2017-03-26T01:53:14.688Z,6.17
2017-03-26T01:53:55.264Z,6.12
2017-03-26T01:54:35.799Z,6.15
2017-03-26T01:55:16.304Z,6.22
2017-03-26T01:55:56.896Z,6.19
2017-03-26T01:56:37.447Z,6.14
2017-03-26T01:57:17.951Z,6.12
2017-03-26T01:57:58.468Z,6.17
2017-03-26T01:58:39.016Z,6.25
2017-03-26T01:59:19.542Z,6.15
2017-03-26T02:00:00.111Z,6.11
2017-03-26T02:00:40.596Z,6.11
2017-03-26T02:01:21.096Z,6.14
2017-03-26T02:02:01.668Z,6.21
2017-03-26T02:02:42.210Z,6.11
2017-03-26T02:03:22.747Z,6.12
2017-03-26T02:04:03.293Z,6.17
2017-03-26T02:04:43.818Z,6.09
2017-03-26T02:05:24.294Z,6.11
2017-03-26T02:06:04.842Z,6.09
2017-03-26T02:06:45.301Z,6.12
2017-03-26T02:07:25.831Z,6.14
2017-03-26T02:08:06.386Z,6.12
2017-03-26T02:08:46.843Z,6.17
2017-03-26T02:09:27.377Z,6.12
2017-03-26T02:10:07.933Z,6.19
2017-03-26T02:10:48.467Z,6.14
2017-03-26T02:11:29.017Z,6.18
2017-03-26T02:12:10.083Z,6.09
2017-03-26T02:12:50.643Z,6.22
2017-03-26T02:13:31.179Z,6.25
2017-03-26T02:14:11.717Z,6.14
2017-03-26T02:14:52.279Z,6.21
2017-03-26T02:15:32.820Z,6.21
2017-03-26T02:16:13.335Z,6.19
2017-03-26T02:16:53.873Z,6.25
2017-03-26T02:17:34.424Z,6.21
2017-03-26T02:18:14.987Z,6.33
2017-03-26T02:18:55.517Z,6.31
2017-03-26T02:19:36.074Z,6.27
2017-03-26T02:20:16.632Z,6.3
2017-03-26T02:20:57.178Z,6.31
2017-03-26T02:21:37.746Z,6.3
2017-03-26T02:22:18.271Z,6.3
2017-03-26T02:22:58.794Z,6.37
2017-03-26T02:23:39.329Z,6.44
2017-03-26T02:24:20.588Z,6.31
2017-03-26T02:25:01.105Z,6.38
2017-03-26T02:25:41.632Z,6.37
2017-03-26T02:26:22.115Z,6.4
2017-03-26T02:27:02.654Z,6.44
2017-03-26T02:27:43.210Z,6.37
2017-03-26T02:28:23.768Z,6.43
2017-03-26T02:29:04.314Z,6.4
2017-03-26T02:29:44.841Z,6.46
2017-03-26T02:30:25.361Z,6.43
2017-03-26T02:31:05.928Z,6.44
2017-03-26T02:31:46.476Z,6.37
2017-03-26T02:32:26.974Z,6.44
2017-03-26T02:33:07.493Z,6.49
2017-03-26T02:33:48.030Z,6.37
2017-03-26T02:34:28.537Z,6.38
2017-03-26T02:35:09.040Z,6.43
2017-03-26T02:35:49.531Z,6.34
2017-03-26T02:36:30.037Z,6.44
2017-03-26T02:37:10.564Z,6.43
2017-03-26T02:37:51.116Z,6.41
2017-03-26T02:38:31.613Z,6.34
2017-03-26T02:39:12.137Z,6.34
2017-03-26T02:39:52.663Z,6.28
2017-03-26T02:40:33.227Z,6.21
2017-03-26T02:41:13.808Z,6.18
2017-03-26T02:41:54.389Z,6.25
2017-03-26T02:42:34.910Z,6.17
2017-03-26T02:43:15.378Z,6.19
2017-03-26T02:43:55.914Z,6.21
2017-03-26T02:44:36.434Z,6.11
2017-03-26T02:45:16.982Z,6.06
2017-03-26T02:45:57.530Z,6
2017-03-26T02:46:38.085Z,5.94
2017-03-26T02:47:18.625Z,6
2017-03-26T02:47:59.188Z,5.97
2017-03-26T02:48:39.704Z,5.96
2017-03-26T02:49:20.242Z,5.85
2017-03-26T02:50:00.750Z,5.93
2017-03-26T02:50:41.254Z,5.89
2017-03-26T02:51:21.739Z,5.78
2017-03-26T02:52:02.293Z,5.82
2017-03-26T02:52:42.783Z,5.75
2017-03-26T02:53:23.341Z,5.72
2017-03-26T02:54:03.917Z,5.76
2017-03-26T02:54:44.483Z,5.72
2017-03-26T02:55:24.993Z,5.74
2017-03-26T02:56:05.553Z,5.64
2017-03-26T02:56:46.084Z,5.67
2017-03-26T02:57:26.593Z,5.68
2017-03-26T02:58:07.130Z,5.53
2017-03-26T02:58:47.627Z,5.57
2017-03-26T02:59:28.139Z,5.53
2017-03-26T03:00:08.670Z,5.53
2017-03-26T03:00:49.177Z,5.48
2017-03-26T03:01:29.686Z,5.46
2017-03-26T03:02:10.209Z,5.43
2017-03-26T03:02:50.719Z,5.54
2017-03-26T03:03:31.253Z,5.46
2017-03-26T03:04:11.790Z,5.46
2017-03-26T03:04:52.296Z,5.45
2017-03-26T03:05:32.814Z,5.39
2017-03-26T03:06:13.309Z,5.38
2017-03-26T03:06:53.817Z,5.39
2017-03-26T03:07:34.331Z,5.39
2017-03-26T03:08:14.824Z,5.35
2017-03-26T03:08:55.348Z,5.36
2017-03-26T03:09:35.879Z,5.33
2017-03-26T03:10:16.383Z,5.36
2017-03-26T03:10:56.915Z,5.3
2017-03-26T03:11:37.411Z,5.35
2017-03-26T03:12:17.939Z,5.35
2017-03-26T03:12:58.391Z,5.38
2017-03-26T03:13:38.890Z,5.36
2017-03-26T03:14:19.383Z,5.31
2017-03-26T03:14:59.930Z,5.31
2017-03-26T03:15:40.433Z,5.31
2017-03-26T03:16:20.939Z,5.31
2017-03-26T03:17:01.459Z,5.31
2017-03-26T03:17:42.004Z,5.35
2017-03-26T03:18:22.502Z,5.35
2017-03-26T03:19:03.028Z,5.3
2017-03-26T03:19:43.513Z,5.28
2017-03-26T03:20:23.987Z,5.31
2017-03-26T03:21:04.523Z,5.3
2017-03-26T03:21:45.118Z,5.43
2017-03-26T03:22:25.590Z,5.3
2017-03-26T03:23:06.075Z,5.31
2017-03-26T03:23:46.583Z,5.4
2017-03-26T03:24:27.111Z,5.35
2017-03-26T03:25:07.618Z,5.33
2017-03-26T03:25:48.146Z,5.36
2017-03-26T03:26:28.662Z,5.38
2017-03-26T03:27:09.177Z,5.35
2017-03-26T03:27:49.684Z,5.28
2017-03-26T03:28:30.173Z,5.33
2017-03-26T03:29:10.751Z,5.22
2017-03-26T03:29:51.371Z,5.28
2017-03-26T03:30:31.989Z,5.24
2017-03-26T03:31:12.578Z,5.28
2017-03-26T03:31:53.172Z,5.28
2017-03-26T03:32:33.731Z,5.25
2017-03-26T03:33:14.336Z,5.2
2017-03-26T03:33:55.016Z,5.18
2017-03-26T03:34:35.535Z,5.22
2017-03-26T03:35:16.139Z,5.25
2017-03-26T03:35:56.631Z,5.24
2017-03-26T03:36:37.249Z,5.15
2017-03-26T03:37:17.835Z,5.2
2017-03-26T03:37:58.424Z,5.18
2017-03-26T03:38:38.993Z,5.15
2017-03-26T03:39:19.499Z,5.22
2017-03-26T03:40:00.003Z,5.13
2017-03-26T03:40:40.587Z,5.12
2017-03-26T03:41:21.194Z,5.1
2017-03-26T03:42:01.747Z,5.15
2017-03-26T03:42:42.390Z,5.15
2017-03-26T03:43:22.922Z,5.15
2017-03-26T03:44:03.488Z,5.13
2017-03-26T03:44:44.106Z,5.21
2017-03-26T03:45:24.732Z,5.13
2017-03-26T03:46:05.280Z,5.15
2017-03-26T03:46:45.869Z,5.17
2017-03-26T03:47:26.371Z,5.09
2017-03-26T03:48:06.973Z,5.17
2017-03-26T03:48:47.567Z,5.07
2017-03-26T03:49:28.114Z,5.18
2017-03-26T03:50:08.695Z,5.09
2017-03-26T03:50:49.296Z,5.07
2017-03-26T03:51:29.934Z,5.04
2017-03-26T03:52:10.703Z,5.07
2017-03-26T03:52:51.343Z,5.1
2017-03-26T03:53:31.834Z,5.09
2017-03-26T03:54:12.384Z,5.06
2017-03-26T03:54:52.938Z,5.12
2017-03-26T03:55:33.480Z,5.1
2017-03-26T03:56:14.736Z,5.04
2017-03-26T03:56:55.292Z,5.07
2017-03-26T03:57:35.848Z,4.96
2017-03-26T03:58:16.458Z,4.99
2017-03-26T03:58:57.060Z,5.02
2017-03-26T03:59:37.654Z,4.97
2017-03-26T04:00:18.184Z,4.97
2017-03-26T04:00:58.706Z,5.03
2017-03-26T04:01:39.290Z,4.97
2017-03-26T04:02:19.833Z,5
2017-03-26T04:03:00.305Z,4.94
2017-03-26T04:03:40.829Z,4.99
2017-03-26T04:04:21.421Z,4.97
2017-03-26T04:05:01.960Z,4.97
2017-03-26T04:05:42.483Z,4.89
2017-03-26T04:06:23.025Z,4.92
2017-03-26T04:07:03.924Z,4.91
2017-03-26T04:07:44.450Z,4.94
2017-03-26T04:08:24.955Z,4.92
2017-03-26T04:09:05.519Z,4.91
2017-03-26T04:09:46.056Z,4.96
2017-03-26T04:10:26.600Z,4.89
2017-03-26T04:11:07.134Z,4.88
2017-03-26T04:11:47.649Z,4.84
2017-03-26T04:12:28.177Z,4.82
2017-03-26T04:13:08.701Z,4.84
2017-03-26T04:13:49.299Z,4.82
2017-03-26T04:14:29.804Z,4.82
2017-03-26T04:15:10.308Z,4.8
2017-03-26T04:15:50.905Z,4.78
2017-03-26T04:16:31.448Z,4.72
2017-03-26T04:17:12.031Z,4.75
2017-03-26T04:17:52.578Z,4.75
2017-03-26T04:18:33.097Z,4.82
2017-03-26T04:19:13.610Z,4.75
2017-03-26T04:19:54.106Z,4.73
2017-03-26T04:20:34.636Z,4.82
2017-03-26T04:21:15.161Z,4.82
2017-03-26T04:21:55.699Z,4.88
2017-03-26T04:22:36.278Z,4.77
2017-03-26T04:23:16.908Z,4.8
2017-03-26T04:23:57.482Z,4.75
2017-03-26T04:24:37.991Z,4.75
2017-03-26T04:25:18.520Z,4.72
2017-03-26T04:25:59.011Z,4.78
2017-03-26T04:26:39.561Z,4.84
2017-03-26T04:27:20.056Z,4.8
2017-03-26T04:28:00.562Z,4.77
2017-03-26T04:28:41.277Z,4.72
2017-03-26T04:29:21.866Z,4.8
2017-03-26T04:30:02.354Z,4.8
2017-03-26T04:30:42.876Z,4.77
2017-03-26T04:31:23.449Z,4.8
2017-03-26T04:32:04.026Z,4.8
2017-03-26T04:32:44.578Z,4.75
2017-03-26T04:33:25.140Z,4.75
2017-03-26T04:34:05.649Z,4.75
2017-03-26T04:34:46.170Z,4.78
2017-03-26T04:35:26.721Z,4.75
2017-03-26T04:36:07.224Z,4.78
2017-03-26T04:36:47.753Z,4.8
2017-03-26T04:37:28.273Z,4.78
2017-03-26T04:38:08.769Z,4.8
2017-03-26T04:38:49.298Z,4.78
2017-03-26T04:39:29.778Z,4.7
2017-03-26T04:40:10.283Z,4.67
2017-03-26T04:40:50.825Z,4.69
2017-03-26T04:41:31.367Z,4.67
2017-03-26T04:42:11.887Z,4.69
2017-03-26T04:42:52.432Z,4.59
2017-03-26T04:43:32.953Z,4.66
2017-03-26T04:44:13.492Z,4.6
2017-03-26T04:44:53.957Z,4.62
2017-03-26T04:45:34.478Z,4.63
2017-03-26T04:46:15.022Z,4.62
2017-03-26T04:46:55.550Z,4.69
2017-03-26T04:47:36.096Z,4.72
2017-03-26T04:48:16.644Z,4.65
2017-03-26T04:48:57.170Z,4.66
2017-03-26T04:49:37.731Z,4.62
2017-03-26T04:50:18.298Z,4.72
2017-03-26T04:50:58.830Z,4.66
2017-03-26T04:51:39.347Z,4.62
2017-03-26T04:52:19.899Z,4.63
2017-03-26T04:53:00.471Z,4.67
2017-03-26T04:53:41.085Z,4.69
2017-03-26T04:54:21.645Z,4.66
2017-03-26T04:55:02.282Z,4.65
2017-03-26T04:55:42.778Z,4.62
2017-03-26T04:56:23.265Z,4.6
2017-03-26T04:57:03.780Z,4.66
2017-03-26T04:57:44.346Z,4.67
2017-03-26T04:58:24.927Z,4.63
2017-03-26T04:59:05.637Z,4.67
2017-03-26T04:59:46.212Z,4.62
2017-03-26T05:00:26.768Z,4.48
2017-03-26T05:01:07.342Z,4.54
2017-03-26T05:01:47.888Z,4.45
2017-03-26T05:02:28.478Z,4.54
2017-03-26T05:03:09.039Z,4.54
2017-03-26T05:03:49.600Z,4.48
2017-03-26T05:04:30.138Z,4.44
2017-03-26T05:05:10.712Z,4.47
2017-03-26T05:05:51.255Z,4.37
2017-03-26T05:06:31.834Z,4.41
2017-03-26T05:07:13.020Z,4.32
2017-03-26T05:07:53.575Z,4.42
2017-03-26T05:08:34.193Z,4.4
2017-03-26T05:09:14.769Z,4.4
2017-03-26T05:09:55.247Z,4.34
2017-03-26T05:10:35.782Z,4.42
2017-03-26T05:11:16.358Z,4.4
2017-03-26T05:11:56.862Z,4.33
2017-03-26T05:12:37.371Z,4.42
2017-03-26T05:13:17.955Z,4.48
2017-03-26T05:13:58.504Z,4.45
2017-03-26T05:14:39.052Z,4.4
2017-03-26T05:15:19.601Z,4.33
2017-03-26T05:16:00.323Z,4.37
2017-03-26T05:16:40.780Z,4.45
2017-03-26T05:17:21.415Z,4.34
2017-03-26T05:18:01.957Z,4.33
2017-03-26T05:18:42.542Z,4.41
2017-03-26T05:19:23.152Z,4.44
2017-03-26T05:20:03.694Z,4.3
2017-03-26T05:20:44.232Z,4.34
2017-03-26T05:21:24.846Z,4.44
2017-03-26T05:22:05.454Z,4.4
2017-03-26T05:22:46.960Z,4.4
2017-03-26T05:23:27.504Z,4.34
2017-03-26T05:24:08.083Z,4.34
2017-03-26T05:24:48.634Z,4.48
2017-03-26T05:25:29.089Z,4.37
2017-03-26T05:26:09.652Z,4.33
2017-03-26T05:26:50.233Z,4.42
2017-03-26T05:27:30.703Z,4.36
2017-03-26T05:28:11.312Z,4.41
2017-03-26T05:28:51.834Z,4.4
2017-03-26T05:29:32.430Z,4.41
2017-03-26T05:30:12.987Z,4.4
2017-03-26T05:30:53.556Z,4.34
2017-03-26T05:31:34.050Z,4.42
2017-03-26T05:32:14.594Z,4.36
2017-03-26T05:32:55.141Z,4.4
2017-03-26T05:33:35.620Z,4.36
2017-03-26T05:34:16.183Z,4.47
2017-03-26T05:34:56.738Z,4.41
2017-03-26T05:35:37.222Z,4.37
2017-03-26T05:36:17.771Z,4.36
2017-03-26T05:36:58.284Z,4.4
2017-03-26T05:37:38.810Z,4.37
2017-03-26T05:38:19.376Z,4.41
2017-03-26T05:38:59.878Z,4.4
2017-03-26T05:39:40.521Z,4.42
2017-03-26T05:40:21.123Z,4.48
2017-03-26T05:41:01.495Z,4.5
2017-03-26T05:41:42.101Z,4.51
2017-03-26T05:42:22.636Z,4.54
2017-03-26T05:43:03.167Z,4.44
2017-03-26T05:43:43.732Z,4.47
2017-03-26T05:44:24.261Z,4.42
2017-03-26T05:45:04.851Z,4.47
2017-03-26T05:45:45.632Z,4.5
2017-03-26T05:46:27.296Z,4.48
2017-03-26T05:47:08.981Z,4.5
2017-03-26T05:47:49.555Z,4.54
2017-03-26T05:48:30.253Z,4.55
2017-03-26T05:49:10.657Z,4.58
2017-03-26T05:49:51.162Z,4.58
2017-03-26T05:50:31.719Z,4.55
2017-03-26T05:51:12.273Z,4.54
2017-03-26T05:51:52.796Z,4.6
2017-03-26T05:52:33.408Z,4.59
2017-03-26T05:53:13.955Z,4.52
2017-03-26T05:53:54.525Z,4.67
2017-03-26T05:54:35.116Z,4.67
2017-03-26T05:55:15.707Z,4.62
2017-03-26T05:55:56.288Z,4.7
2017-03-26T05:56:36.860Z,4.6
2017-03-26T05:57:17.385Z,4.67
2017-03-26T05:57:58.077Z,4.65
2017-03-26T05:58:38.844Z,4.62
2017-03-26T05:59:19.502Z,4.66
2017-03-26T05:59:59.956Z,4.6
2017-03-26T06:00:40.495Z,4.65
2017-03-26T06:01:21.118Z,4.69
2017-03-26T06:02:01.638Z,4.69
2017-03-26T06:02:42.214Z,4.7
2017-03-26T06:03:22.808Z,4.69
2017-03-26T06:04:03.276Z,4.7
2017-03-26T06:04:43.786Z,4.69
2017-03-26T06:05:24.392Z,4.73
2017-03-26T06:06:04.983Z,4.69
2017-03-26T06:06:45.484Z,4.67
2017-03-26T06:07:26.004Z,4.73
2017-03-26T06:08:06.593Z,4.73
2017-03-26T06:08:47.175Z,4.63
2017-03-26T06:09:27.663Z,4.77
2017-03-26T06:10:08.278Z,4.75
2017-03-26T06:10:48.789Z,4.77
2017-03-26T06:11:29.352Z,4.72
2017-03-26T06:12:09.858Z,4.77
2017-03-26T06:12:50.426Z,4.84
2017-03-26T06:13:31.032Z,4.73
2017-03-26T06:14:11.533Z,4.7
2017-03-26T06:14:51.979Z,4.73
2017-03-26T06:15:32.530Z,4.82
2017-03-26T06:16:13.070Z,4.78
2017-03-26T06:16:53.649Z,4.88
2017-03-26T06:17:34.204Z,4.89
2017-03-26T06:18:14.819Z,4.94
2017-03-26T06:18:55.414Z,4.86
2017-03-26T06:19:35.949Z,4.91
2017-03-26T06:20:16.520Z,4.92
2017-03-26T06:20:57.134Z,4.89
2017-03-26T06:21:37.631Z,4.94
2017-03-26T06:22:18.212Z,4.89
2017-03-26T06:22:58.872Z,4.89
2017-03-26T06:23:39.317Z,4.88
2017-03-26T06:24:19.877Z,4.89
2017-03-26T06:25:00.425Z,4.88
2017-03-26T06:25:40.927Z,4.85
2017-03-26T06:26:21.488Z,4.85
2017-03-26T06:27:02.004Z,4.91
2017-03-26T06:27:42.501Z,4.96
2017-03-26T06:28:23.064Z,4.92
2017-03-26T06:29:03.546Z,4.92
2017-03-26T06:29:44.180Z,4.99
2017-03-26T06:30:24.796Z,4.94
2017-03-26T06:31:05.274Z,4.96
2017-03-26T06:31:45.803Z,4.96
2017-03-26T06:32:26.381Z,4.99
2017-03-26T06:33:06.923Z,5.04
2017-03-26T06:33:47.494Z,5.03
2017-03-26T06:34:28.135Z,5.09
2017-03-26T06:35:09.044Z,5.09
2017-03-26T06:35:51.204Z,5.1
2017-03-26T06:36:33.850Z,5.13
2017-03-26T06:37:16.233Z,5.1
2017-03-26T06:37:58.532Z,5.13
2017-03-26T06:38:40.979Z,5.1
2017-03-26T06:39:23.399Z,5.17
2017-03-26T06:40:05.167Z,5.12
2017-03-26T06:40:45.878Z,5.15
2017-03-26T06:41:26.415Z,5.22
2017-03-26T06:42:06.998Z,5.15
2017-03-26T06:42:47.524Z,5.18
2017-03-26T06:43:28.043Z,5.31
2017-03-26T06:44:08.644Z,5.24
2017-03-26T06:44:49.210Z,5.33
2017-03-26T06:45:29.803Z,5.38
2017-03-26T06:46:10.401Z,5.36
2017-03-26T06:46:51.056Z,5.42
2017-03-26T06:47:31.691Z,5.36
2017-03-26T06:48:12.290Z,5.43
2017-03-26T06:48:52.790Z,5.51
2017-03-26T06:49:33.605Z,5.51
2017-03-26T06:50:14.245Z,5.53
2017-03-26T06:50:54.743Z,5.56
2017-03-26T06:51:35.297Z,5.61
2017-03-26T06:52:15.881Z,5.63
2017-03-26T06:52:56.397Z,5.6
2017-03-26T06:53:36.898Z,5.64
2017-03-26T06:54:17.532Z,5.56
2017-03-26T06:54:58.087Z,5.75
2017-03-26T06:55:38.718Z,5.58
2017-03-26T06:56:19.160Z,5.72
2017-03-26T06:56:59.655Z,5.61
2017-03-26T06:57:40.381Z,5.64
2017-03-26T06:58:21.022Z,5.68
2017-03-26T06:59:01.739Z,5.65
2017-03-26T06:59:42.270Z,5.72
2017-03-26T07:00:22.775Z,5.78
2017-03-26T07:01:03.377Z,5.68
2017-03-26T07:01:43.943Z,5.78
2017-03-26T07:02:24.510Z,5.74
2017-03-26T07:03:05.020Z,5.78
2017-03-26T07:03:45.553Z,5.82
2017-03-26T07:04:28.438Z,5.85
2017-03-26T07:05:08.998Z,5.96
2017-03-26T07:05:49.593Z,5.96
2017-03-26T07:06:30.233Z,5.97
2017-03-26T07:07:10.787Z,5.97
2017-03-26T07:07:51.353Z,6.01
2017-03-26T07:08:31.915Z,6.04
2017-03-26T07:09:12.491Z,6.09
2017-03-26T07:09:54.118Z,6.12
2017-03-26T07:10:34.693Z,6.12
2017-03-26T07:11:15.257Z,6.27
2017-03-26T07:11:55.922Z,6.19
2017-03-26T07:12:36.523Z,6.21
2017-03-26T07:13:17.102Z,6.18
2017-03-26T07:13:57.691Z,6.3
2017-03-26T07:14:39.367Z,6.28
2017-03-26T07:15:19.898Z,6.28
2017-03-26T07:16:00.430Z,6.37
2017-03-26T07:16:41.008Z,6.43
2017-03-26T07:17:21.495Z,6.37
2017-03-26T07:18:02.056Z,6.44
2017-03-26T07:18:42.548Z,6.48
2017-03-26T07:19:23.062Z,6.56
2017-03-26T07:20:03.671Z,6.58
2017-03-26T07:20:44.130Z,6.58
2017-03-26T07:21:24.699Z,6.59
2017-03-26T07:22:05.251Z,6.61
2017-03-26T07:22:45.754Z,6.69
2017-03-26T07:23:26.304Z,6.74
2017-03-26T07:24:06.809Z,6.71
2017-03-26T07:24:47.340Z,6.73
2017-03-26T07:25:27.897Z,6.81
2017-03-26T07:26:08.430Z,6.8
2017-03-26T07:26:48.954Z,6.81
2017-03-26T07:27:29.535Z,6.85
2017-03-26T07:28:10.072Z,6.97
2017-03-26T07:28:50.582Z,6.95
2017-03-26T07:29:31.636Z,6.95
2017-03-26T07:30:12.816Z,7.03
2017-03-26T07:30:53.545Z,7.09
2017-03-26T07:31:34.199Z,7.07
2017-03-26T07:32:14.728Z,7.17
2017-03-26T07:32:55.363Z,7.13
2017-03-26T07:33:35.893Z,7.28
2017-03-26T07:34:16.466Z,7.13
2017-03-26T07:34:57.086Z,7.23
2017-03-26T07:35:37.773Z,7.17
2017-03-26T07:36:18.292Z,7.23
2017-03-26T07:36:58.952Z,7.31
2017-03-26T07:37:39.449Z,7.31
2017-03-26T07:38:20.057Z,7.45
2017-03-26T07:39:00.612Z,7.46
2017-03-26T07:39:41.188Z,7.45
2017-03-26T07:40:21.779Z,7.55
2017-03-26T07:41:02.344Z,7.6
2017-03-26T07:41:42.845Z,7.52
2017-03-26T07:42:23.535Z,7.67
2017-03-26T07:43:04.450Z,7.75
2017-03-26T07:43:44.910Z,7.71
2017-03-26T07:44:25.524Z,7.74
2017-03-26T07:45:06.050Z,7.75
2017-03-26T07:45:46.589Z,7.87
2017-03-26T07:46:27.081Z,7.89
2017-03-26T07:47:07.609Z,7.93
2017-03-26T07:47:48.151Z,7.9
2017-03-26T07:48:28.723Z,8.04
2017-03-26T07:49:09.258Z,7.95
2017-03-26T07:49:49.831Z,7.95
2017-03-26T07:50:30.467Z,8.07
2017-03-26T07:51:11.263Z,8.12
2017-03-26T07:51:51.932Z,8.05
2017-03-26T07:52:32.611Z,8.15
2017-03-26T07:53:13.251Z,8.28
2017-03-26T07:53:53.891Z,8.22
2017-03-26T07:54:34.390Z,8.28
2017-03-26T07:55:15.028Z,8.36
2017-03-26T07:55:55.743Z,8.4
2017-03-26T07:56:36.276Z,8.45
2017-03-26T07:57:16.945Z,8.48
2017-03-26T07:57:57.527Z,8.52
2017-03-26T07:58:38.331Z,8.56
2017-03-26T07:59:19.036Z,8.53
2017-03-26T07:59:59.514Z,8.71
2017-03-26T08:00:40.162Z,8.68
2017-03-26T08:01:20.615Z,8.73
2017-03-26T08:02:01.148Z,8.81
2017-03-26T08:02:41.902Z,8.84
2017-03-26T08:03:22.579Z,8.81
2017-03-26T08:04:03.190Z,8.91
2017-03-26T08:04:43.726Z,8.91
2017-03-26T08:05:24.226Z,8.99
2017-03-26T08:06:04.831Z,9.02
2017-03-26T08:06:45.434Z,9.02
2017-03-26T08:07:25.950Z,9.1
2017-03-26T08:08:06.737Z,9.04
2017-03-26T08:08:47.363Z,9.04
2017-03-26T08:09:28.125Z,9.01
2017-03-26T08:10:08.725Z,9.15
2017-03-26T08:10:49.289Z,9.17
2017-03-26T08:11:30.001Z,9.2
2017-03-26T08:12:10.659Z,9.23
2017-03-26T08:12:51.514Z,9.33
2017-03-26T08:13:32.070Z,9.26
2017-03-26T08:14:12.630Z,9.39
2017-03-26T08:14:53.569Z,9.39
2017-03-26T08:15:34.486Z,9.5
2017-03-26T08:16:15.346Z,9.56
2017-03-26T08:16:57.430Z,9.54
2017-03-26T08:17:38.243Z,9.6
2017-03-26T08:18:19.061Z,9.66
2017-03-26T08:19:00.053Z,9.66
2017-03-26T08:19:40.675Z,9.75
2017-03-26T08:20:21.466Z,9.72
2017-03-26T08:21:02.080Z,9.72
2017-03-26T08:21:42.933Z,9.9
2017-03-26T08:22:23.596Z,9.87
2017-03-26T08:24:08.139Z,10.05
2017-03-26T08:24:48.895Z,10.12
2017-03-26T08:25:29.541Z,10.09
2017-03-26T08:26:10.140Z,10.2
2017-03-26T08:26:50.705Z,10.22
2017-03-26T08:27:31.712Z,10.23
2017-03-26T08:28:12.188Z,10.25
2017-03-26T08:28:52.740Z,10.3
2017-03-26T08:29:33.466Z,10.29
2017-03-26T08:30:14.004Z,10.33
2017-03-26T08:30:54.655Z,10.42
2017-03-26T08:31:35.267Z,10.42
2017-03-26T08:32:15.891Z,10.52
2017-03-26T08:32:56.512Z,10.51
2017-03-26T08:33:37.342Z,10.66
2017-03-26T08:34:18.130Z,10.63
2017-03-26T08:34:58.626Z,10.76
2017-03-26T08:35:39.119Z,10.89
2017-03-26T08:36:19.732Z,10.88
2017-03-26T08:37:00.468Z,10.88
2017-03-26T08:37:41.291Z,11
2017-03-26T08:38:21.927Z,11.14
2017-03-26T08:39:02.631Z,11.15
2017-03-26T08:39:43.261Z,11.19
2017-03-26T08:40:24.078Z,11.32
2017-03-26T08:41:04.603Z,11.29
2017-03-26T08:41:45.155Z,11.36
2017-03-26T08:42:25.733Z,11.42
2017-03-26T08:43:06.259Z,11.57
2017-03-26T08:43:46.781Z,11.47
2017-03-26T08:44:27.328Z,11.58
2017-03-26T08:45:07.818Z,11.72
2017-03-26T08:45:48.349Z,11.73
2017-03-26T08:46:28.867Z,11.78
2017-03-26T08:47:09.374Z,11.8
2017-03-26T08:47:49.954Z,11.9
2017-03-26T08:48:30.453Z,11.9
2017-03-26T08:49:11.040Z,12.01
2017-03-26T08:49:51.814Z,12.04
2017-03-26T08:50:32.495Z,12.2
2017-03-26T08:51:13.281Z,12.32
2017-03-26T08:51:53.982Z,12.42
2017-03-26T08:52:34.563Z,12.53
2017-03-26T08:53:15.121Z,12.62
2017-03-26T08:53:55.698Z,12.71
2017-03-26T08:54:36.206Z,12.75
2017-03-26T08:55:16.902Z,12.74
2017-03-26T08:55:57.457Z,12.67
2017-03-26T08:56:38.073Z,12.85
2017-03-26T08:57:18.624Z,12.89
2017-03-26T08:57:59.387Z,13.01
2017-03-26T08:58:39.875Z,13.07
2017-03-26T08:59:20.465Z,13.08
2017-03-26T09:00:01.009Z,13.15
2017-03-26T09:00:41.496Z,13.15
2017-03-26T09:01:22.026Z,13.26
2017-03-26T09:02:02.558Z,13.26
2017-03-26T09:02:43.087Z,13.42
2017-03-26T09:03:23.606Z,13.6